Time;durP1;ratioP1;P1;durP2;ratioP2;P2;SDS_P1;SDS_P2;PMS_P1;PMS_P2;Temp;Humidity;BMP_temperature;BMP_pressure;BME280_temperature;BME280_humidity;BME280_pressure;Samples;Min_cycle;Max_cycle;Signal;HPM_P1;HPM_P2
2022/03/07 00:01:33;;;;;;;18.05;15.30;;;0.80;99.90;;;;;;5061261;28;20195;-47
2022/03/07 00:04:02;;;;;;;23.27;16.95;;;0.70;99.90;;;;;;5060982;28;20522;-48
2022/03/07 00:06:29;;;;;;;29.73;17.77;;;0.90;99.90;;;;;;5060740;28;20249;-47
2022/03/07 00:08:58;;;;;;;21.08;16.17;;;0.80;99.90;;;;;;5060045;28;20203;-50
2022/03/07 00:11:25;;;;;;;23.88;17.08;;;0.70;99.90;;;;;;5060848;28;20203;-49
2022/03/07 00:13:52;;;;;;;18.92;15.85;;;0.60;99.90;;;;;;5060853;28;20230;-48
2022/03/07 00:16:19;;;;;;;24.88;16.08;;;0.70;99.90;;;;;;5060891;28;20199;-48
2022/03/07 00:18:47;;;;;;;19.15;15.55;;;0.80;99.90;;;;;;5060747;28;20210;-48
2022/03/07 00:21:14;;;;;;;24.85;16.20;;;0.80;99.90;;;;;;5060544;28;20203;-48
2022/03/07 00:23:41;;;;;;;23.10;16.50;;;0.80;99.90;;;;;;5060238;28;20219;-45
2022/03/07 00:26:08;;;;;;;26.75;15.40;;;0.80;99.90;;;;;;5061090;28;20255;-50
2022/03/07 00:28:35;;;;;;;20.67;15.00;;;0.90;99.90;;;;;;5059841;28;20203;-45
2022/03/07 00:31:07;;;;;;;22.13;14.50;;;0.90;99.90;;;;;;5061118;28;20248;-47
2022/03/07 00:33:35;;;;;;;19.45;15.23;;;0.80;99.90;;;;;;5060153;28;20243;-45
2022/03/07 00:36:06;;;;;;;24.73;16.15;;;0.60;99.90;;;;;;5060291;28;20196;-49
2022/03/07 00:38:33;;;;;;;24.50;14.57;;;0.60;99.90;;;;;;5060512;28;20215;-48
2022/03/07 00:41:01;;;;;;;15.52;13.60;;;0.70;99.90;;;;;;5060417;28;20202;-47
2022/03/07 00:43:28;;;;;;;18.83;13.52;;;0.80;99.90;;;;;;5060233;28;20286;-46
2022/03/07 00:45:56;;;;;;;23.80;16.00;;;0.80;99.90;;;;;;5059810;28;20199;-47
2022/03/07 00:48:23;;;;;;;23.13;15.93;;;0.70;99.90;;;;;;5060953;28;20207;-45
2022/03/07 00:50:51;;;;;;;21.50;14.73;;;0.60;99.90;;;;;;5061009;28;20443;-47
2022/03/07 00:53:23;;;;;;;23.35;15.77;;;0.80;99.90;;;;;;5059867;28;20518;-45
2022/03/07 00:55:51;;;;;;;16.20;11.80;;;0.80;99.90;;;;;;5060142;28;20283;-51
2022/03/07 00:58:18;;;;;;;21.20;15.30;;;0.80;99.90;;;;;;5059783;28;20364;-46
2022/03/07 01:00:45;;;;;;;20.55;15.07;;;0.80;99.90;;;;;;5060512;28;20195;-45
2022/03/07 01:03:15;;;;;;;24.05;14.38;;;0.90;99.90;;;;;;5059722;28;20234;-48
2022/03/07 01:05:44;;;;;;;19.92;13.30;;;0.90;99.90;;;;;;5060037;28;20199;-41
2022/03/07 01:08:11;;;;;;;19.83;14.23;;;0.90;99.90;;;;;;5059692;28;20374;-50
2022/03/07 01:10:39;;;;;;;18.90;14.93;;;0.80;99.90;;;;;;5059861;28;20514;-45
2022/03/07 01:13:07;;;;;;;22.90;13.88;;;0.70;99.90;;;;;;5059466;28;20223;-46
2022/03/07 01:15:34;;;;;;;19.67;13.40;;;0.70;99.90;;;;;;5059651;28;20210;-51
2022/03/07 01:18:03;;;;;;;17.75;13.27;;;0.70;99.90;;;;;;5059593;28;20196;-46
2022/03/07 01:20:32;;;;;;;16.38;13.70;;;0.60;99.90;;;;;;5059647;28;20241;-48
2022/03/07 01:22:59;;;;;;;20.40;13.82;;;0.50;99.90;;;;;;5059455;28;20223;-51
2022/03/07 01:25:27;;;;;;;17.10;13.13;;;0.50;99.90;;;;;;5059020;28;20199;-50
2022/03/07 01:27:54;;;;;;;17.73;12.52;;;0.50;99.90;;;;;;5059551;28;20200;-48
2022/03/07 01:30:22;;;;;;;23.30;13.35;;;0.40;99.90;;;;;;5058940;28;20420;-47
2022/03/07 01:32:52;;;;;;;18.38;15.27;;;0.50;99.90;;;;;;5058922;28;20251;-47
2022/03/07 01:35:22;;;;;;;18.73;13.73;;;0.50;99.90;;;;;;5059628;28;20647;-49
2022/03/07 01:37:49;;;;;;;19.75;13.95;;;0.50;99.90;;;;;;5059158;28;20241;-50
2022/03/07 01:40:17;;;;;;;17.98;13.23;;;0.70;99.90;;;;;;5059194;28;20195;-44
2022/03/07 01:42:44;;;;;;;22.52;12.27;;;0.60;99.90;;;;;;5059133;28;20235;-46
2022/03/07 01:45:14;;;;;;;20.83;13.73;;;0.50;99.90;;;;;;5059082;28;20199;-45
2022/03/07 01:47:41;;;;;;;19.70;15.45;;;0.50;99.90;;;;;;5059559;28;20587;-44
2022/03/07 01:50:13;;;;;;;18.02;13.82;;;0.50;99.90;;;;;;5058789;28;20220;-49
2022/03/07 01:52:44;;;;;;;19.85;14.80;;;0.40;99.90;;;;;;5058980;28;20519;-46
2022/03/07 01:55:12;;;;;;;17.73;13.70;;;0.60;99.90;;;;;;5059426;28;20406;-46
2022/03/07 01:57:41;;;;;;;18.95;13.77;;;0.70;99.90;;;;;;5059595;28;20211;-50
2022/03/07 02:00:18;;;;;;;20.98;13.30;;;0.70;99.90;;;;;;5058745;28;20437;-46
2022/03/07 02:02:45;;;;;;;19.20;11.98;;;0.60;99.90;;;;;;5059358;28;20222;-49
2022/03/07 02:05:13;;;;;;;17.42;13.25;;;0.60;99.90;;;;;;5058695;28;20222;-47
2022/03/07 02:07:40;;;;;;;17.20;14.00;;;0.40;99.90;;;;;;5059436;28;20207;-44
2022/03/07 02:10:09;;;;;;;18.40;12.75;;;0.60;99.90;;;;;;5059015;28;20552;-50
2022/03/07 02:12:37;;;;;;;24.00;14.10;;;0.80;99.90;;;;;;5058644;28;20227;-46
2022/03/07 02:15:07;;;;;;;20.38;13.65;;;0.80;99.90;;;;;;5058866;28;20234;-46
2022/03/07 02:17:35;;;;;;;21.95;13.18;;;0.80;99.90;;;;;;5056286;28;20242;-50
2022/03/07 02:20:04;;;;;;;18.90;14.73;;;0.70;99.90;;;;;;5040725;28;20237;-48
2022/03/07 02:22:32;;;;;;;19.02;12.52;;;0.80;99.90;;;;;;5053936;28;20219;-47
2022/03/07 02:24:59;;;;;;;18.02;14.15;;;0.80;99.90;;;;;;5059008;28;20537;-48
2022/03/07 02:27:26;;;;;;;15.50;12.30;;;0.80;99.90;;;;;;5059931;28;20200;-44
2022/03/07 02:29:53;;;;;;;18.02;13.00;;;0.70;99.90;;;;;;5059525;28;20237;-46
2022/03/07 02:32:21;;;;;;;17.77;12.30;;;0.70;99.90;;;;;;5059777;28;20546;-44
2022/03/07 02:34:48;;;;;;;25.00;14.00;;;0.60;99.90;;;;;;5059321;28;20219;-45
2022/03/07 02:37:16;;;;;;;17.10;12.57;;;0.50;99.90;;;;;;5059100;28;20203;-44
2022/03/07 02:39:43;;;;;;;23.33;13.82;;;0.50;99.90;;;;;;5058854;28;20372;-45
2022/03/07 02:42:31;;;;;;;16.15;12.93;;;0.50;99.90;;;;;;5059055;28;20256;-47
2022/03/07 02:44:58;;;;;;;16.00;12.05;;;0.50;99.90;;;;;;5058754;28;20200;-44
2022/03/07 02:47:26;;;;;;;20.25;15.25;;;0.60;99.90;;;;;;5058758;28;20187;-44
2022/03/07 02:49:53;;;;;;;21.95;13.73;;;0.50;99.90;;;;;;5058761;28;20299;-49
2022/03/07 02:52:20;;;;;;;16.73;14.48;;;0.50;99.90;;;;;;5058453;28;20220;-44
2022/03/07 02:54:48;;;;;;;21.13;13.73;;;0.50;99.90;;;;;;5058724;28;20229;-46
2022/03/07 02:57:15;;;;;;;19.38;14.95;;;0.50;99.90;;;;;;5058446;28;20196;-48
2022/03/07 02:59:42;;;;;;;17.50;12.90;;;0.50;99.90;;;;;;5058614;28;20250;-45
2022/03/07 03:02:10;;;;;;;18.00;13.35;;;0.50;99.90;;;;;;5061803;28;20216;-50
2022/03/07 03:04:38;;;;;;;21.70;12.25;;;0.50;99.90;;;;;;5062429;28;20271;-48
2022/03/07 03:07:06;;;;;;;19.77;13.20;;;0.60;99.90;;;;;;5062570;28;20199;-46
2022/03/07 03:09:33;;;;;;;15.98;12.38;;;0.50;99.90;;;;;;5062087;28;20200;-47
2022/03/07 03:12:00;;;;;;;17.02;12.30;;;0.50;99.90;;;;;;5062029;28;20258;-44
2022/03/07 03:14:28;;;;;;;15.20;11.85;;;0.50;99.90;;;;;;5062562;28;20281;-43
2022/03/07 03:16:55;;;;;;;17.50;12.25;;;0.50;99.90;;;;;;5062013;28;20293;-51
2022/03/07 03:19:22;;;;;;;25.80;15.65;;;0.60;99.90;;;;;;5062448;28;20202;-47
2022/03/07 03:21:52;;;;;;;15.70;12.00;;;0.50;99.90;;;;;;5062042;28;20215;-48
2022/03/07 03:24:19;;;;;;;17.70;12.45;;;0.40;99.90;;;;;;5062011;28;20230;-49
2022/03/07 03:26:46;;;;;;;25.25;14.20;;;0.40;99.90;;;;;;5061968;28;20247;-44
2022/03/07 03:29:14;;;;;;;19.38;11.15;;;0.40;99.90;;;;;;5062232;28;20203;-47
2022/03/07 03:31:41;;;;;;;19.80;11.00;;;0.50;99.90;;;;;;5061620;28;20223;-43
2022/03/07 03:34:08;;;;;;;17.55;11.75;;;0.50;99.90;;;;;;5061706;28;20215;-49
2022/03/07 03:36:35;;;;;;;18.40;13.50;;;0.40;99.90;;;;;;5061807;28;20249;-45
2022/03/07 03:39:02;;;;;;;19.25;12.80;;;0.40;99.90;;;;;;5061301;28;20269;-46
2022/03/07 03:41:29;;;;;;;13.73;9.98;;;0.50;99.90;;;;;;5061926;28;20203;-46
2022/03/07 03:43:58;;;;;;;19.13;13.48;;;0.50;99.90;;;;;;5061078;28;20670;-48
2022/03/07 03:46:25;;;;;;;21.10;14.10;;;0.60;99.90;;;;;;5061679;28;20245;-45
2022/03/07 03:48:52;;;;;;;18.58;12.05;;;0.50;99.90;;;;;;5061590;28;20226;-45
2022/03/07 03:51:19;;;;;;;22.23;13.82;;;0.40;99.90;;;;;;5061681;28;20237;-44
2022/03/07 03:53:46;;;;;;;18.50;11.88;;;0.50;99.90;;;;;;5061664;28;20415;-45
2022/03/07 03:56:13;;;;;;;16.75;11.07;;;0.40;99.90;;;;;;5061113;28;20203;-45
2022/03/07 03:58:41;;;;;;;13.10;10.68;;;0.40;99.90;;;;;;5062079;28;20382;-49
2022/03/07 04:01:08;;;;;;;16.88;12.43;;;0.40;99.90;;;;;;5061953;28;20192;-43
2022/03/07 04:03:36;;;;;;;17.20;11.73;;;0.40;99.90;;;;;;5061681;28;20219;-46
2022/03/07 04:06:06;;;;;;;13.50;10.15;;;0.50;99.90;;;;;;5060559;28;20203;-44
2022/03/07 04:08:42;;;;;;;20.05;11.52;;;0.50;99.90;;;;;;5061010;28;20218;-44
2022/03/07 04:11:09;;;;;;;16.63;10.82;;;0.60;99.90;;;;;;5060548;28;20211;-44
2022/03/07 04:13:36;;;;;;;16.42;11.63;;;0.50;99.90;;;;;;5060776;28;20227;-47
2022/03/07 04:16:04;;;;;;;18.70;11.85;;;0.50;99.90;;;;;;5061200;28;20233;-46
2022/03/07 04:18:31;;;;;;;16.33;10.80;;;0.50;99.90;;;;;;5057341;28;20199;-44
2022/03/07 04:20:58;;;;;;;20.40;12.23;;;0.50;99.90;;;;;;5043753;28;20427;-45
2022/03/07 04:23:26;;;;;;;13.70;9.55;;;0.40;99.90;;;;;;5048832;28;20290;-44
2022/03/07 04:25:53;;;;;;;12.75;9.85;;;0.30;99.90;;;;;;5058355;28;20270;-46
2022/03/07 04:28:20;;;;;;;19.08;10.27;;;0.40;99.90;;;;;;5057514;28;20258;-46
2022/03/07 04:30:47;;;;;;;13.75;10.27;;;0.30;99.90;;;;;;5052203;28;20257;-43
2022/03/07 04:33:14;;;;;;;21.10;10.27;;;0.40;99.90;;;;;;5040971;28;20329;-45
2022/03/07 04:35:41;;;;;;;14.20;8.85;;;0.40;99.90;;;;;;5056759;28;20875;-42
2022/03/07 04:38:09;;;;;;;12.65;9.90;;;0.50;99.90;;;;;;5060251;28;20203;-48
2022/03/07 04:40:36;;;;;;;16.15;9.65;;;0.50;99.90;;;;;;5059845;28;20211;-43
2022/03/07 04:43:04;;;;;;;15.90;10.35;;;0.50;99.90;;;;;;5051830;28;20302;-43
2022/03/07 04:45:31;;;;;;;18.17;9.90;;;0.40;99.90;;;;;;5058378;28;20214;-48
2022/03/07 04:47:58;;;;;;;19.75;11.40;;;0.30;99.90;;;;;;5052931;28;20454;-42
2022/03/07 04:50:25;;;;;;;12.90;9.35;;;0.40;99.90;;;;;;5054451;28;20237;-42
2022/03/07 04:52:52;;;;;;;19.00;9.55;;;0.40;99.90;;;;;;5051812;28;20296;-47
2022/03/07 04:55:19;;;;;;;22.70;10.90;;;0.30;99.90;;;;;;5053857;28;20693;-45
2022/03/07 04:57:47;;;;;;;15.57;10.55;;;0.40;99.90;;;;;;5053432;28;20203;-44
2022/03/07 05:00:16;;;;;;;14.32;9.88;;;0.40;99.90;;;;;;5051338;28;20196;-47
2022/03/07 05:02:43;;;;;;;13.93;10.20;;;0.40;99.90;;;;;;5051130;28;20215;-47
2022/03/07 05:05:11;;;;;;;13.05;8.65;;;0.40;99.90;;;;;;5032987;28;20245;-48
2022/03/07 05:07:38;;;;;;;13.35;9.18;;;0.40;99.90;;;;;;5039248;28;20212;-46
2022/03/07 05:10:06;;;;;;;14.38;8.48;;;0.40;99.90;;;;;;5039152;28;20402;-46
2022/03/07 05:12:33;;;;;;;14.85;10.38;;;0.40;99.90;;;;;;5039173;28;20454;-47
2022/03/07 05:15:01;;;;;;;16.08;9.65;;;0.40;99.90;;;;;;5033271;28;20427;-43
2022/03/07 05:17:28;;;;;;;14.98;9.15;;;0.50;99.90;;;;;;5039824;28;20228;-42
2022/03/07 05:19:55;;;;;;;13.98;9.27;;;0.50;99.90;;;;;;5034840;28;20434;-45
2022/03/07 05:22:24;;;;;;;16.15;9.52;;;0.50;99.90;;;;;;5039054;28;20266;-42
2022/03/07 05:24:51;;;;;;;14.13;9.32;;;0.40;99.90;;;;;;5038922;28;20208;-50
2022/03/07 05:27:19;;;;;;;13.00;9.00;;;0.40;99.90;;;;;;5039357;28;20208;-44
2022/03/07 05:29:46;;;;;;;17.02;9.23;;;0.30;99.90;;;;;;5039420;28;20200;-47
2022/03/07 05:32:13;;;;;;;13.80;9.88;;;0.30;99.90;;;;;;5038271;28;20220;-46
2022/03/07 05:34:41;;;;;;;16.20;8.75;;;0.30;99.90;;;;;;5039173;28;20273;-43
2022/03/07 05:37:08;;;;;;;15.90;8.25;;;0.40;99.90;;;;;;5038602;28;20243;-45
2022/03/07 05:39:35;;;;;;;16.80;9.00;;;0.40;99.90;;;;;;5038947;28;20569;-45
2022/03/07 05:42:03;;;;;;;16.80;10.55;;;0.30;99.90;;;;;;5038993;28;20224;-43
2022/03/07 05:44:30;;;;;;;14.88;9.18;;;0.40;99.90;;;;;;5039380;28;20200;-43
2022/03/07 05:46:58;;;;;;;12.95;9.48;;;0.40;99.90;;;;;;5048795;28;20203;-44
2022/03/07 05:49:25;;;;;;;9.02;7.80;;;0.40;99.90;;;;;;5050743;28;20226;-48
2022/03/07 05:51:52;;;;;;;15.43;9.43;;;0.40;99.90;;;;;;5059095;28;20239;-43
2022/03/07 05:54:20;;;;;;;9.05;7.63;;;0.40;99.90;;;;;;5059012;28;20284;-46
2022/03/07 05:56:47;;;;;;;15.68;10.07;;;0.30;99.90;;;;;;5059376;28;20252;-42
2022/03/07 05:59:14;;;;;;;11.55;8.88;;;0.40;99.90;;;;;;5059088;28;20436;-45
2022/03/07 06:01:42;;;;;;;11.40;8.20;;;0.50;99.90;;;;;;5058274;28;20224;-45
2022/03/07 06:04:09;;;;;;;15.05;9.15;;;0.40;99.90;;;;;;5058902;28;20204;-44
2022/03/07 06:06:37;;;;;;;15.20;10.40;;;0.50;99.90;;;;;;5034417;28;20269;-46
2022/03/07 06:09:04;;;;;;;13.50;8.82;;;0.50;99.90;;;;;;5039199;28;20246;-43
2022/03/07 06:11:31;;;;;;;17.33;10.65;;;0.50;99.90;;;;;;5039641;28;20511;-45
2022/03/07 06:13:58;;;;;;;9.32;8.25;;;0.50;99.90;;;;;;5038828;28;20294;-46
2022/03/07 06:16:26;;;;;;;13.52;9.80;;;0.50;99.90;;;;;;5039135;28;20207;-42
2022/03/07 06:18:53;;;;;;;15.23;8.55;;;0.40;99.90;;;;;;5038630;28;20196;-46
2022/03/07 06:21:20;;;;;;;13.27;7.75;;;0.50;99.90;;;;;;5033658;28;20204;-48
2022/03/07 06:23:47;;;;;;;14.27;8.85;;;0.50;99.90;;;;;;5039886;28;20503;-45
2022/03/07 06:26:15;;;;;;;12.63;9.43;;;0.60;99.90;;;;;;5042590;28;20203;-46
2022/03/07 06:28:42;;;;;;;14.25;10.05;;;0.60;99.90;;;;;;5041378;28;20503;-44
2022/03/07 06:31:09;;;;;;;14.00;8.45;;;0.70;99.90;;;;;;5049767;28;20262;-47
2022/03/07 06:33:36;;;;;;;15.98;8.55;;;0.80;99.90;;;;;;5058366;28;20220;-46
2022/03/07 06:36:06;;;;;;;9.57;7.22;;;1.00;99.90;;;;;;5061520;28;20206;-44
2022/03/07 06:38:34;;;;;;;15.55;9.32;;;1.10;99.90;;;;;;5060818;28;20199;-44
2022/03/07 06:41:02;;;;;;;9.95;7.78;;;1.20;99.90;;;;;;5041984;28;20579;-47
2022/03/07 06:43:30;;;;;;;10.18;6.50;;;1.50;99.90;;;;;;5042287;28;20293;-44
2022/03/07 06:45:57;;;;;;;11.20;8.63;;;1.70;99.90;;;;;;5042449;28;20524;-47
2022/03/07 06:48:24;;;;;;;16.00;7.30;;;2.30;99.90;;;;;;5042097;28;20272;-42
2022/03/07 06:50:51;;;;;;;7.68;5.68;;;2.90;99.90;;;;;;5042460;28;20197;-43
2022/03/07 06:53:19;;;;;;;9.68;6.50;;;4.00;99.90;;;;;;5042059;28;20229;-43
2022/03/07 06:55:48;;;;;;;8.73;5.60;;;4.50;99.90;;;;;;5042699;28;20202;-43
2022/03/07 06:58:15;;;;;;;11.43;6.80;;;5.20;99.90;;;;;;5042836;28;20203;-43
2022/03/07 07:00:42;;;;;;;8.68;7.10;;;5.40;99.90;;;;;;5042850;28;20200;-47
2022/03/07 07:03:09;;;;;;;9.32;5.75;;;5.80;99.90;;;;;;5041964;28;20223;-45
2022/03/07 07:05:36;;;;;;;17.77;7.60;;;6.30;99.90;;;;;;5041909;28;20204;-44
2022/03/07 07:08:04;;;;;;;11.15;7.38;;;6.80;99.90;;;;;;5041402;28;20208;-45
2022/03/07 07:10:31;;;;;;;11.90;7.28;;;6.80;99.90;;;;;;5041644;28;20293;-48
2022/03/07 07:12:59;;;;;;;10.88;6.65;;;6.40;99.90;;;;;;5042671;28;20402;-44
2022/03/07 07:15:26;;;;;;;7.03;6.32;;;5.80;99.90;;;;;;5043160;28;20220;-43
2022/03/07 07:17:53;;;;;;;9.30;7.63;;;5.20;99.90;;;;;;5042103;28;20200;-47
2022/03/07 07:20:20;;;;;;;9.40;6.80;;;4.70;99.90;;;;;;5041788;28;20243;-46
2022/03/07 07:22:47;;;;;;;8.80;6.40;;;4.30;99.90;;;;;;5042183;28;20600;-46
2022/03/07 07:25:15;;;;;;;10.57;7.60;;;4.00;99.90;;;;;;5041677;28;20261;-46
2022/03/07 07:27:42;;;;;;;10.07;6.65;;;3.80;99.90;;;;;;5041815;28;20424;-49
2022/03/07 07:30:10;;;;;;;10.07;6.90;;;3.70;99.90;;;;;;5041662;28;20214;-46
2022/03/07 07:32:39;;;;;;;11.52;7.88;;;3.40;99.90;;;;;;5041396;28;20295;-48
2022/03/07 07:35:08;;;;;;;11.45;7.22;;;3.70;99.90;;;;;;5041093;28;20262;-45
2022/03/07 07:37:35;;;;;;;10.10;6.63;;;4.90;99.90;;;;;;5041416;28;20202;-49
2022/03/07 07:40:05;;;;;;;8.88;6.10;;;6.20;99.90;;;;;;5040870;28;20223;-45
2022/03/07 07:42:33;;;;;;;12.60;8.70;;;7.80;99.90;;;;;;5041525;28;20216;-46
2022/03/07 07:45:00;;;;;;;12.90;8.10;;;9.30;99.90;;;;;;5040622;28;20204;-46
2022/03/07 07:47:27;;;;;;;8.52;6.32;;;10.40;99.90;;;;;;5040937;28;20253;-48
2022/03/07 07:49:55;;;;;;;8.05;7.28;;;11.00;99.90;;;;;;5040883;28;20219;-45
2022/03/07 07:52:22;;;;;;;10.10;6.68;;;10.90;99.90;;;;;;5040733;28;20521;-45
2022/03/07 07:54:50;;;;;;;10.20;7.28;;;11.40;99.90;;;;;;5040891;28;20536;-47
2022/03/07 07:57:17;;;;;;;7.28;5.88;;;11.00;99.90;;;;;;5040778;28;20202;-44
2022/03/07 07:59:45;;;;;;;10.07;7.70;;;11.10;99.90;;;;;;5040905;28;20202;-47
2022/03/07 08:02:32;;;;;;;7.13;6.32;;;11.50;99.90;;;;;;5040755;28;20208;-43
2022/03/07 08:04:59;;;;;;;7.88;5.55;;;11.70;99.90;;;;;;5040890;28;20208;-45
2022/03/07 08:07:34;;;;;;;6.93;6.22;;;12.30;99.90;;;;;;5040555;28;20204;-43
2022/03/07 08:10:01;;;;;;;12.35;6.97;;;12.90;99.90;;;;;;5040630;28;20200;-47
2022/03/07 08:12:28;;;;;;;10.60;6.45;;;12.30;99.90;;;;;;5040331;28;20224;-48
2022/03/07 08:14:55;;;;;;;6.85;6.15;;;10.50;99.90;;;;;;5039927;28;20245;-50
2022/03/07 08:17:23;;;;;;;10.60;6.57;;;8.90;99.90;;;;;;5040600;28;20199;-46
2022/03/07 08:19:51;;;;;;;7.75;6.25;;;7.70;99.90;;;;;;5040268;28;20199;-44
2022/03/07 08:22:18;;;;;;;7.65;6.13;;;7.70;99.90;;;;;;5040573;28;20627;-48
2022/03/07 08:24:46;;;;;;;10.63;6.35;;;8.70;99.90;;;;;;5040047;28;20234;-49
2022/03/07 08:27:13;;;;;;;10.07;7.35;;;9.50;99.90;;;;;;5040515;28;20210;-46
2022/03/07 08:29:40;;;;;;;6.90;5.30;;;10.50;99.90;;;;;;5040641;28;20209;-45
2022/03/07 08:32:07;;;;;;;7.45;5.50;;;11.40;99.90;;;;;;5040218;28;20233;-48
2022/03/07 08:34:35;;;;;;;6.47;5.85;;;11.30;99.90;;;;;;5040401;28;20222;-48
2022/03/07 08:37:03;;;;;;;8.98;7.43;;;9.40;99.90;;;;;;5040111;28;20245;-49
2022/03/07 08:39:30;;;;;;;8.40;6.63;;;8.00;99.90;;;;;;5040482;28;20532;-44
2022/03/07 08:41:57;;;;;;;8.98;6.03;;;7.60;99.90;;;;;;5039927;28;20217;-50
2022/03/07 08:44:25;;;;;;;7.72;6.60;;;7.00;99.90;;;;;;5040307;28;20207;-46
2022/03/07 08:46:52;;;;;;;9.02;7.05;;;6.50;99.90;;;;;;5040173;28;20279;-48
2022/03/07 08:49:20;;;;;;;8.23;6.47;;;6.20;99.90;;;;;;5040176;28;20414;-49
2022/03/07 08:51:47;;;;;;;8.48;6.72;;;6.00;99.90;;;;;;5040196;28;20237;-50
2022/03/07 08:54:14;;;;;;;11.00;6.53;;;6.10;99.90;;;;;;5039326;28;20258;-52
2022/03/07 08:56:42;;;;;;;15.10;7.13;;;6.30;99.90;;;;;;5040403;28;20204;-49
2022/03/07 08:59:10;;;;;;;9.20;6.50;;;6.20;99.90;;;;;;5037818;28;20284;-49
2022/03/07 09:01:37;;;;;;;7.13;5.90;;;6.20;99.90;;;;;;5038403;28;20208;-45
2022/03/07 09:04:05;;;;;;;8.82;5.90;;;5.90;99.90;;;;;;5038013;28;20294;-43
2022/03/07 09:06:33;;;;;;;8.15;5.82;;;5.60;99.90;;;;;;5039989;28;20239;-43
2022/03/07 09:09:00;;;;;;;8.80;6.07;;;5.90;99.90;;;;;;5039532;28;20196;-45
2022/03/07 09:11:48;;;;;;;9.65;6.72;;;7.20;99.90;;;;;;5038730;28;20224;-48
2022/03/07 09:14:15;;;;;;;11.20;6.80;;;8.40;99.90;;;;;;5039087;28;20224;-48
2022/03/07 09:16:42;;;;;;;7.72;6.70;;;8.10;99.90;;;;;;5039102;28;20621;-49
2022/03/07 09:19:10;;;;;;;10.60;7.07;;;8.70;99.90;;;;;;5038719;28;20250;-46
2022/03/07 09:21:38;;;;;;;8.48;7.10;;;8.50;99.90;;;;;;5039095;28;20430;-45
2022/03/07 09:24:05;;;;;;;7.95;6.20;;;8.10;99.90;;;;;;5039319;28;20227;-46
2022/03/07 09:26:33;;;;;;;6.70;5.85;;;8.10;99.90;;;;;;5039684;28;20206;-47
2022/03/07 09:29:00;;;;;;;7.60;5.75;;;8.00;99.90;;;;;;5038958;28;20399;-50
2022/03/07 09:31:28;;;;;;;8.70;6.60;;;8.50;99.90;;;;;;5039248;28;20220;-49
2022/03/07 09:33:55;;;;;;;8.23;6.78;;;8.50;99.90;;;;;;5039110;28;20236;-51
2022/03/07 09:36:23;;;;;;;9.20;6.95;;;7.80;99.90;;;;;;5039598;28;20200;-48
2022/03/07 09:38:51;;;;;;;11.27;7.75;;;7.40;99.90;;;;;;5039207;28;20210;-45
2022/03/07 09:41:19;;;;;;;12.15;9.07;;;7.00;99.90;;;;;;5036932;28;20211;-46
2022/03/07 09:43:47;;;;;;;8.35;6.40;;;6.60;99.90;;;;;;5044533;28;20408;-49
2022/03/07 09:46:15;;;;;;;11.43;6.50;;;6.70;99.90;;;;;;5040768;28;20306;-44
2022/03/07 09:48:44;;;;;;;9.30;7.22;;;6.40;99.90;;;;;;5049087;28;20211;-44
2022/03/07 09:51:13;;;;;;;11.40;6.18;;;6.10;99.90;;;;;;5031261;28;20401;-45
2022/03/07 09:53:41;;;;;;;7.97;6.53;;;6.00;99.90;;;;;;5039010;28;20231;-46
2022/03/07 09:56:08;;;;;;;8.38;5.43;;;6.10;99.90;;;;;;5037958;28;20446;-44
2022/03/07 09:58:35;;;;;;;9.40;6.97;;;6.20;99.90;;;;;;5037418;28;20204;-45
2022/03/07 10:01:15;;;;;;;8.07;6.15;;;6.10;99.90;;;;;;5038117;28;20200;-48
2022/03/07 10:03:48;;;;;;;7.35;5.35;;;6.20;99.90;;;;;;5035761;28;20204;-47
2022/03/07 10:06:18;;;;;;;8.48;7.65;;;6.40;99.90;;;;;;5038348;28;20534;-45
2022/03/07 10:08:58;;;;;;;10.18;6.82;;;6.50;99.90;;;;;;5037950;28;20235;-48
2022/03/07 10:11:29;;;;;;;6.15;5.55;;;6.70;99.90;;;;;;5038327;28;20343;-47
2022/03/07 10:14:02;;;;;;;8.15;6.38;;;6.80;99.90;;;;;;5038198;28;20482;-47
2022/03/07 10:16:40;;;;;;;6.97;4.65;;;6.70;99.90;;;;;;5038661;28;20235;-48
2022/03/07 10:19:10;;;;;;;6.30;5.15;;;6.30;99.90;;;;;;5038599;28;20202;-46
2022/03/07 10:21:52;;;;;;;5.13;4.63;;;6.20;99.90;;;;;;5038921;28;20435;-45
2022/03/07 10:24:34;;;;;;;6.70;5.10;;;6.20;99.90;;;;;;5038503;28;20219;-43
2022/03/07 10:27:02;;;;;;;6.60;4.80;;;6.00;99.90;;;;;;5039083;28;20235;-47
2022/03/07 10:29:29;;;;;;;7.07;5.10;;;6.10;99.90;;;;;;5039559;28;20369;-49
2022/03/07 10:31:58;;;;;;;6.90;5.38;;;6.60;99.90;;;;;;5036738;28;20220;-47
2022/03/07 10:34:26;;;;;;;4.70;4.20;;;7.40;99.90;;;;;;5038303;28;20228;-46
2022/03/07 10:36:54;;;;;;;9.50;5.65;;;7.90;99.90;;;;;;5038220;28;20439;-52
2022/03/07 10:39:26;;;;;;;10.02;6.00;;;8.00;99.90;;;;;;5039017;28;20523;-49
2022/03/07 10:41:54;;;;;;;6.07;5.38;;;7.80;99.90;;;;;;5038392;28;20223;-45
2022/03/07 10:44:30;;;;;;;6.70;5.85;;;7.30;99.90;;;;;;5038525;28;20207;-44
2022/03/07 10:47:10;;;;;;;9.68;4.20;;;7.30;99.90;;;;;;5038934;28;20558;-53
2022/03/07 10:49:54;;;;;;;4.47;4.07;;;7.60;99.90;;;;;;5038538;28;20204;-47
2022/03/07 10:52:23;;;;;;;6.90;4.50;;;7.50;99.90;;;;;;5032767;28;20483;-44
2022/03/07 10:54:51;;;;;;;4.80;4.30;;;7.50;99.90;;;;;;5038574;28;20220;-47
2022/03/07 10:57:20;;;;;;;7.50;4.82;;;7.70;99.90;;;;;;5038999;28;20216;-50
2022/03/07 10:59:48;;;;;;;6.50;5.90;;;7.50;99.90;;;;;;5038903;28;20434;-46
2022/03/07 11:02:17;;;;;;;10.88;5.15;;;7.30;99.90;;;;;;5038503;28;20215;-46
2022/03/07 11:04:48;;;;;;;4.95;4.45;;;7.30;99.90;;;;;;5038216;28;20223;-48
2022/03/07 11:07:15;;;;;;;5.90;4.53;;;7.10;99.90;;;;;;5038133;28;20208;-47
2022/03/07 11:09:44;;;;;;;7.88;5.55;;;6.70;99.90;;;;;;5039198;28;20206;-48
2022/03/07 11:12:12;;;;;;;6.35;5.63;;;6.40;99.90;;;;;;5030435;28;20249;-47
2022/03/07 11:14:42;;;;;;;7.05;4.65;;;6.40;99.90;;;;;;5038815;28;20250;-47
2022/03/07 11:17:13;;;;;;;3.83;3.53;;;6.50;99.90;;;;;;5038332;28;20196;-43
2022/03/07 11:19:42;;;;;;;4.90;3.65;;;6.60;99.90;;;;;;5038402;28;20242;-46
2022/03/07 11:22:11;;;;;;;7.43;5.15;;;7.00;99.90;;;;;;5040251;28;20221;-43
2022/03/07 11:24:40;;;;;;;7.63;4.50;;;7.30;99.90;;;;;;5042195;28;20562;-45
2022/03/07 11:27:08;;;;;;;4.68;3.75;;;7.80;99.90;;;;;;5042173;28;20200;-50
2022/03/07 11:29:41;;;;;;;5.40;3.92;;;8.00;99.90;;;;;;5042007;28;20271;-48
2022/03/07 11:32:11;;;;;;;4.40;4.00;;;8.20;99.90;;;;;;5041715;28;20262;-45
2022/03/07 11:34:38;;;;;;;5.75;4.20;;;8.30;99.90;;;;;;5041769;28;20202;-45
2022/03/07 11:37:19;;;;;;;2.92;2.72;;;8.10;99.90;;;;;;5041670;28;20196;-45
2022/03/07 11:39:47;;;;;;;4.80;3.78;;;7.70;99.90;;;;;;5042514;28;20196;-44
2022/03/07 11:42:20;;;;;;;6.00;4.53;;;7.30;99.90;;;;;;5041160;28;20216;-45
2022/03/07 11:44:48;;;;;;;4.82;4.32;;;7.10;99.90;;;;;;5042087;28;20507;-47
2022/03/07 11:47:18;;;;;;;6.10;4.05;;;7.30;99.90;;;;;;5041945;28;20202;-44
2022/03/07 11:49:47;;;;;;;6.22;4.40;;;7.60;99.90;;;;;;5041916;28;20211;-44
2022/03/07 11:52:16;;;;;;;4.28;3.35;;;7.40;99.90;;;;;;5041644;28;20605;-47
2022/03/07 11:54:51;;;;;;;4.00;2.97;;;7.10;99.90;;;;;;5040436;28;20234;-44
2022/03/07 11:57:18;;;;;;;4.15;3.75;;;6.70;99.90;;;;;;5041958;28;20204;-47
2022/03/07 11:59:46;;;;;;;5.07;3.90;;;6.50;99.90;;;;;;5041209;28;20212;-49
2022/03/07 12:02:13;;;;;;;5.20;4.47;;;6.40;99.90;;;;;;5041579;28;20235;-46
2022/03/07 12:04:45;;;;;;;6.65;5.80;;;6.60;99.90;;;;;;5041376;28;20707;-48
2022/03/07 12:07:24;;;;;;;7.18;4.05;;;6.80;99.90;;;;;;5033723;28;20364;-46
2022/03/07 12:09:52;;;;;;;8.80;4.13;;;7.00;99.90;;;;;;5041396;28;20196;-46
2022/03/07 12:12:21;;;;;;;4.60;3.60;;;7.40;99.90;;;;;;5040774;28;20220;-49
2022/03/07 12:14:48;;;;;;;5.40;3.70;;;7.50;99.90;;;;;;5041365;28;20204;-46
2022/03/07 12:17:18;;;;;;;5.38;3.92;;;7.20;99.90;;;;;;5040854;28;20208;-45
2022/03/07 12:19:56;;;;;;;7.07;4.45;;;7.00;99.90;;;;;;5041576;28;20196;-46
2022/03/07 12:22:28;;;;;;;5.65;4.07;;;6.80;99.90;;;;;;5041140;28;20446;-46
2022/03/07 12:25:04;;;;;;;10.30;4.57;;;6.70;99.90;;;;;;5041214;28;20200;-46
2022/03/07 12:27:37;;;;;;;6.53;4.55;;;6.90;99.90;;;;;;5041017;28;20275;-44
2022/03/07 12:30:59;;;;;;;10.77;4.78;;;7.00;99.90;;;;;;5040821;28;20250;-43
2022/03/07 12:33:27;;;;;;;6.50;4.75;;;6.90;99.90;;;;;;5042432;28;20378;-43
2022/03/07 12:36:09;;;;;;;6.75;4.82;;;6.50;99.90;;;;;;5041848;28;20223;-45
2022/03/07 12:38:52;;;;;;;6.00;4.55;;;6.40;99.90;;;;;;5041183;28;20290;-46
2022/03/07 12:41:31;;;;;;;7.40;4.32;;;6.50;99.90;;;;;;5040506;28;20523;-45
2022/03/07 12:44:00;;;;;;;11.27;6.40;;;6.70;99.90;;;;;;5040494;28;20196;-44
2022/03/07 12:46:29;;;;;;;6.57;4.78;;;6.70;99.90;;;;;;5040253;28;20208;-45
2022/03/07 12:48:58;;;;;;;9.65;4.15;;;6.80;99.90;;;;;;5040238;28;20270;-47
2022/03/07 12:51:26;;;;;;;7.22;3.95;;;6.90;99.90;;;;;;5040325;28;20206;-46
2022/03/07 12:53:59;;;;;;;5.20;3.40;;;6.60;99.90;;;;;;5039335;28;20472;-45